sensor_id;sensor_type;location;lat;lon;timestamp;temperature;humidity
7646;DHT22;3864;48.180;14.178;2022-11-15T00:00:10;2.50;99.90
7646;DHT22;3864;48.180;14.178;2022-11-15T00:02:37;2.80;99.90
7646;DHT22;3864;48.180;14.178;2022-11-15T00:05:07;3.00;99.90
7646;DHT22;3864;48.180;14.178;2022-11-15T00:07:34;3.00;99.90
7646;DHT22;3864;48.180;14.178;2022-11-15T00:10:02;3.20;99.90
7646;DHT22;3864;48.180;14.178;2022-11-15T00:12:29;3.30;99.90
7646;DHT22;3864;48.180;14.178;2022-11-15T00:14:56;3.20;99.90
7646;DHT22;3864;48.180;14.178;2022-11-15T00:17:24;3.20;99.90
7646;DHT22;3864;48.180;14.178;2022-11-15T00:19:51;3.10;99.90
7646;DHT22;3864;48.180;14.178;2022-11-15T00:22:20;3.10;99.90
7646;DHT22;3864;48.180;14.178;2022-11-15T00:24:47;3.20;99.90
7646;DHT22;3864;48.180;14.178;2022-11-15T00:27:14;3.10;99.90
7646;DHT22;3864;48.180;14.178;2022-11-15T00:29:42;2.90;99.90
7646;DHT22;3864;48.180;14.178;2022-11-15T00:32:09;2.60;99.90
7646;DHT22;3864;48.180;14.178;2022-11-15T00:34:37;2.30;99.90
7646;DHT22;3864;48.180;14.178;2022-11-15T00:37:04;2.10;99.90
7646;DHT22;3864;48.180;14.178;2022-11-15T00:39:34;2.00;99.90
7646;DHT22;3864;48.180;14.178;2022-11-15T00:42:01;1.90;99.90
7646;DHT22;3864;48.180;14.178;2022-11-15T00:44:29;1.80;99.90
7646;DHT22;3864;48.180;14.178;2022-11-15T00:47:07;1.80;99.90
7646;DHT22;3864;48.180;14.178;2022-11-15T00:49:35;1.80;99.90
7646;DHT22;3864;48.180;14.178;2022-11-15T00:52:02;1.80;99.90
7646;DHT22;3864;48.180;14.178;2022-11-15T00:54:29;1.80;99.90
7646;DHT22;3864;48.180;14.178;2022-11-15T00:57:22;1.70;99.90
7646;DHT22;3864;48.180;14.178;2022-11-15T00:59:50;1.60;99.90
7646;DHT22;3864;48.180;14.178;2022-11-15T01:02:17;1.50;99.90
7646;DHT22;3864;48.180;14.178;2022-11-15T01:04:45;1.50;99.90
7646;DHT22;3864;48.180;14.178;2022-11-15T01:07:12;1.50;99.90
7646;DHT22;3864;48.180;14.178;2022-11-15T01:09:39;1.60;99.90
7646;DHT22;3864;48.180;14.178;2022-11-15T01:12:07;1.70;99.90
7646;DHT22;3864;48.180;14.178;2022-11-15T01:14:36;1.80;99.90
7646;DHT22;3864;48.180;14.178;2022-11-15T01:17:03;1.90;99.90
7646;DHT22;3864;48.180;14.178;2022-11-15T01:19:30;1.80;99.90
7646;DHT22;3864;48.180;14.178;2022-11-15T01:21:58;1.60;99.90
7646;DHT22;3864;48.180;14.178;2022-11-15T01:24:25;1.60;99.90
7646;DHT22;3864;48.180;14.178;2022-11-15T01:26:52;1.80;99.90
7646;DHT22;3864;48.180;14.178;2022-11-15T01:29:20;1.90;99.90
7646;DHT22;3864;48.180;14.178;2022-11-15T01:31:48;2.20;99.90
7646;DHT22;3864;48.180;14.178;2022-11-15T01:34:16;2.30;99.90
7646;DHT22;3864;48.180;14.178;2022-11-15T01:36:43;2.20;99.90
7646;DHT22;3864;48.180;14.178;2022-11-15T01:39:10;2.00;99.90
7646;DHT22;3864;48.180;14.178;2022-11-15T01:41:38;1.80;99.90
7646;DHT22;3864;48.180;14.178;2022-11-15T01:44:38;1.70;99.90
7646;DHT22;3864;48.180;14.178;2022-11-15T01:47:10;1.60;99.90
7646;DHT22;3864;48.180;14.178;2022-11-15T01:49:41;1.50;99.90
7646;DHT22;3864;48.180;14.178;2022-11-15T01:52:17;1.50;99.90
7646;DHT22;3864;48.180;14.178;2022-11-15T01:54:45;1.50;99.90
7646;DHT22;3864;48.180;14.178;2022-11-15T01:57:13;1.60;99.90
7646;DHT22;3864;48.180;14.178;2022-11-15T01:59:43;1.70;99.90
7646;DHT22;3864;48.180;14.178;2022-11-15T02:02:12;1.80;99.90
7646;DHT22;3864;48.180;14.178;2022-11-15T02:04:42;1.80;99.90
7646;DHT22;3864;48.180;14.178;2022-11-15T02:07:12;1.70;99.90
7646;DHT22;3864;48.180;14.178;2022-11-15T02:09:40;1.60;99.90
7646;DHT22;3864;48.180;14.178;2022-11-15T02:12:09;1.60;99.90
7646;DHT22;3864;48.180;14.178;2022-11-15T02:14:38;1.50;99.90
7646;DHT22;3864;48.180;14.178;2022-11-15T02:17:19;1.40;99.90
7646;DHT22;3864;48.180;14.178;2022-11-15T02:20:31;1.30;99.90
7646;DHT22;3864;48.180;14.178;2022-11-15T02:23:42;1.20;99.90
7646;DHT22;3864;48.180;14.178;2022-11-15T02:29:15;1.10;99.90
7646;DHT22;3864;48.180;14.178;2022-11-15T02:31:50;1.00;99.90
7646;DHT22;3864;48.180;14.178;2022-11-15T02:34:26;1.10;99.90
7646;DHT22;3864;48.180;14.178;2022-11-15T02:37:03;1.20;99.90
7646;DHT22;3864;48.180;14.178;2022-11-15T02:39:38;1.30;99.90
7646;DHT22;3864;48.180;14.178;2022-11-15T02:42:13;1.40;99.90
7646;DHT22;3864;48.180;14.178;2022-11-15T02:44:57;1.40;99.90
7646;DHT22;3864;48.180;14.178;2022-11-15T02:47:28;1.40;99.90
7646;DHT22;3864;48.180;14.178;2022-11-15T02:50:00;1.40;99.90
7646;DHT22;3864;48.180;14.178;2022-11-15T02:52:29;1.40;99.90
7646;DHT22;3864;48.180;14.178;2022-11-15T02:54:57;1.40;99.90
7646;DHT22;3864;48.180;14.178;2022-11-15T02:57:36;1.40;99.90
7646;DHT22;3864;48.180;14.178;2022-11-15T03:00:08;1.50;99.90
7646;DHT22;3864;48.180;14.178;2022-11-15T03:02:46;1.70;99.90
7646;DHT22;3864;48.180;14.178;2022-11-15T03:05:22;1.90;99.90
7646;DHT22;3864;48.180;14.178;2022-11-15T03:07:54;2.00;99.90
7646;DHT22;3864;48.180;14.178;2022-11-15T03:10:29;2.10;99.90
7646;DHT22;3864;48.180;14.178;2022-11-15T03:13:05;2.20;99.90
7646;DHT22;3864;48.180;14.178;2022-11-15T03:15:40;2.30;99.90
7646;DHT22;3864;48.180;14.178;2022-11-15T03:18:17;2.20;99.90
7646;DHT22;3864;48.180;14.178;2022-11-15T03:20:47;2.30;99.90
7646;DHT22;3864;48.180;14.178;2022-11-15T03:26:07;2.20;99.90
7646;DHT22;3864;48.180;14.178;2022-11-15T03:28:38;2.30;99.90
7646;DHT22;3864;48.180;14.178;2022-11-15T03:31:06;2.30;99.90
7646;DHT22;3864;48.180;14.178;2022-11-15T03:33:50;2.30;99.90
7646;DHT22;3864;48.180;14.178;2022-11-15T03:36:19;2.40;99.90
7646;DHT22;3864;48.180;14.178;2022-11-15T03:38:48;2.40;99.90
7646;DHT22;3864;48.180;14.178;2022-11-15T03:41:19;2.40;99.90
7646;DHT22;3864;48.180;14.178;2022-11-15T03:43:54;2.50;99.90
7646;DHT22;3864;48.180;14.178;2022-11-15T03:46:26;2.50;99.90
7646;DHT22;3864;48.180;14.178;2022-11-15T03:49:00;2.50;99.90
7646;DHT22;3864;48.180;14.178;2022-11-15T03:51:30;2.60;99.90
7646;DHT22;3864;48.180;14.178;2022-11-15T03:53:58;2.70;99.90
7646;DHT22;3864;48.180;14.178;2022-11-15T03:56:25;2.70;99.90
7646;DHT22;3864;48.180;14.178;2022-11-15T03:58:53;2.70;99.90
7646;DHT22;3864;48.180;14.178;2022-11-15T04:01:20;2.70;99.90
7646;DHT22;3864;48.180;14.178;2022-11-15T04:03:47;2.70;99.90
7646;DHT22;3864;48.180;14.178;2022-11-15T04:06:16;2.70;99.90
7646;DHT22;3864;48.180;14.178;2022-11-15T04:08:43;2.70;99.90
7646;DHT22;3864;48.180;14.178;2022-11-15T04:11:11;2.60;99.90
7646;DHT22;3864;48.180;14.178;2022-11-15T04:13:38;2.60;99.90
7646;DHT22;3864;48.180;14.178;2022-11-15T04:16:05;2.60;99.90
7646;DHT22;3864;48.180;14.178;2022-11-15T04:18:33;2.70;99.90
7646;DHT22;3864;48.180;14.178;2022-11-15T04:21:00;2.70;99.90
7646;DHT22;3864;48.180;14.178;2022-11-15T04:23:54;2.70;99.90
7646;DHT22;3864;48.180;14.178;2022-11-15T04:26:39;2.60;99.90
7646;DHT22;3864;48.180;14.178;2022-11-15T04:29:06;2.60;99.90
7646;DHT22;3864;48.180;14.178;2022-11-15T04:31:51;2.60;99.90
7646;DHT22;3864;48.180;14.178;2022-11-15T04:34:18;2.50;99.90
7646;DHT22;3864;48.180;14.178;2022-11-15T04:36:45;2.50;99.90
7646;DHT22;3864;48.180;14.178;2022-11-15T04:39:34;2.40;99.90
7646;DHT22;3864;48.180;14.178;2022-11-15T04:42:01;2.30;99.90
7646;DHT22;3864;48.180;14.178;2022-11-15T04:44:29;2.30;99.90
7646;DHT22;3864;48.180;14.178;2022-11-15T04:46:56;2.20;99.90
7646;DHT22;3864;48.180;14.178;2022-11-15T04:49:23;2.20;99.90
7646;DHT22;3864;48.180;14.178;2022-11-15T04:51:51;2.20;99.90
7646;DHT22;3864;48.180;14.178;2022-11-15T04:54:18;2.10;99.90
7646;DHT22;3864;48.180;14.178;2022-11-15T04:56:47;2.10;99.90
7646;DHT22;3864;48.180;14.178;2022-11-15T04:59:14;2.00;99.90
7646;DHT22;3864;48.180;14.178;2022-11-15T05:01:41;1.80;99.90
7646;DHT22;3864;48.180;14.178;2022-11-15T05:04:09;1.80;99.90
7646;DHT22;3864;48.180;14.178;2022-11-15T05:06:49;1.70;99.90
7646;DHT22;3864;48.180;14.178;2022-11-15T05:09:17;1.60;99.90
7646;DHT22;3864;48.180;14.178;2022-11-15T05:11:47;1.60;99.90
7646;DHT22;3864;48.180;14.178;2022-11-15T05:14:15;1.50;99.90
7646;DHT22;3864;48.180;14.178;2022-11-15T05:16:42;1.40;99.90
7646;DHT22;3864;48.180;14.178;2022-11-15T05:19:10;1.30;99.90
7646;DHT22;3864;48.180;14.178;2022-11-15T05:21:37;1.20;99.90
7646;DHT22;3864;48.180;14.178;2022-11-15T05:24:05;1.30;99.90
7646;DHT22;3864;48.180;14.178;2022-11-15T05:26:33;1.40;99.90
7646;DHT22;3864;48.180;14.178;2022-11-15T05:29:01;1.40;99.90
7646;DHT22;3864;48.180;14.178;2022-11-15T05:31:29;1.50;99.90
7646;DHT22;3864;48.180;14.178;2022-11-15T05:33:58;1.60;99.90
7646;DHT22;3864;48.180;14.178;2022-11-15T05:36:31;1.60;99.90
7646;DHT22;3864;48.180;14.178;2022-11-15T05:38:59;1.50;99.90
7646;DHT22;3864;48.180;14.178;2022-11-15T05:41:30;1.60;99.90
7646;DHT22;3864;48.180;14.178;2022-11-15T05:44:01;1.60;99.90
7646;DHT22;3864;48.180;14.178;2022-11-15T05:46:29;1.70;99.90
7646;DHT22;3864;48.180;14.178;2022-11-15T05:48:57;1.70;99.90
7646;DHT22;3864;48.180;14.178;2022-11-15T05:51:27;1.80;99.90
7646;DHT22;3864;48.180;14.178;2022-11-15T05:53:57;1.80;99.90
7646;DHT22;3864;48.180;14.178;2022-11-15T05:56:25;1.70;99.90
7646;DHT22;3864;48.180;14.178;2022-11-15T05:58:53;1.70;99.90
7646;DHT22;3864;48.180;14.178;2022-11-15T06:01:25;1.60;99.90
7646;DHT22;3864;48.180;14.178;2022-11-15T06:03:54;1.60;99.90
7646;DHT22;3864;48.180;14.178;2022-11-15T06:06:22;1.70;99.90
7646;DHT22;3864;48.180;14.178;2022-11-15T06:08:50;1.70;99.90
7646;DHT22;3864;48.180;14.178;2022-11-15T06:11:18;1.80;99.90
7646;DHT22;3864;48.180;14.178;2022-11-15T06:13:46;1.70;99.90
7646;DHT22;3864;48.180;14.178;2022-11-15T06:16:14;1.70;99.90
7646;DHT22;3864;48.180;14.178;2022-11-15T06:18:44;1.70;99.90
7646;DHT22;3864;48.180;14.178;2022-11-15T06:21:12;1.70;99.90
7646;DHT22;3864;48.180;14.178;2022-11-15T06:23:42;1.70;99.90
7646;DHT22;3864;48.180;14.178;2022-11-15T06:26:09;1.80;99.90
7646;DHT22;3864;48.180;14.178;2022-11-15T06:28:37;1.90;99.90
7646;DHT22;3864;48.180;14.178;2022-11-15T06:31:06;2.00;99.90
7646;DHT22;3864;48.180;14.178;2022-11-15T06:33:34;2.00;99.90
7646;DHT22;3864;48.180;14.178;2022-11-15T06:36:06;2.20;99.90
7646;DHT22;3864;48.180;14.178;2022-11-15T06:38:35;2.20;99.90
7646;DHT22;3864;48.180;14.178;2022-11-15T06:41:04;2.30;99.90
7646;DHT22;3864;48.180;14.178;2022-11-15T06:43:33;2.30;99.90
7646;DHT22;3864;48.180;14.178;2022-11-15T06:46:02;2.40;99.90
7646;DHT22;3864;48.180;14.178;2022-11-15T06:48:31;2.50;99.90
7646;DHT22;3864;48.180;14.178;2022-11-15T06:51:00;2.60;99.90
7646;DHT22;3864;48.180;14.178;2022-11-15T06:53:31;2.60;99.90
7646;DHT22;3864;48.180;14.178;2022-11-15T06:56:03;2.70;99.90
7646;DHT22;3864;48.180;14.178;2022-11-15T06:58:31;2.70;99.90
7646;DHT22;3864;48.180;14.178;2022-11-15T07:01:00;2.80;99.90
7646;DHT22;3864;48.180;14.178;2022-11-15T07:03:28;2.80;99.90
7646;DHT22;3864;48.180;14.178;2022-11-15T07:05:57;3.00;99.90
7646;DHT22;3864;48.180;14.178;2022-11-15T07:08:27;3.10;99.90
7646;DHT22;3864;48.180;14.178;2022-11-15T07:11:00;3.10;99.90
7646;DHT22;3864;48.180;14.178;2022-11-15T07:13:30;3.20;99.90
7646;DHT22;3864;48.180;14.178;2022-11-15T07:16:01;3.20;99.90
7646;DHT22;3864;48.180;14.178;2022-11-15T07:18:29;3.30;99.90
7646;DHT22;3864;48.180;14.178;2022-11-15T07:21:00;3.50;99.90
7646;DHT22;3864;48.180;14.178;2022-11-15T07:23:28;3.50;99.90
7646;DHT22;3864;48.180;14.178;2022-11-15T07:25:56;3.60;99.90
7646;DHT22;3864;48.180;14.178;2022-11-15T07:28:26;3.70;99.90
7646;DHT22;3864;48.180;14.178;2022-11-15T07:30:54;3.70;99.90
7646;DHT22;3864;48.180;14.178;2022-11-15T07:33:21;3.80;99.90
7646;DHT22;3864;48.180;14.178;2022-11-15T07:35:49;3.90;99.90
7646;DHT22;3864;48.180;14.178;2022-11-15T07:38:17;4.00;99.90
7646;DHT22;3864;48.180;14.178;2022-11-15T07:40:46;4.00;99.90
7646;DHT22;3864;48.180;14.178;2022-11-15T07:43:15;3.90;99.90
7646;DHT22;3864;48.180;14.178;2022-11-15T07:45:45;3.90;99.90
7646;DHT22;3864;48.180;14.178;2022-11-15T07:48:12;4.10;99.90
7646;DHT22;3864;48.180;14.178;2022-11-15T07:50:41;4.10;99.90
7646;DHT22;3864;48.180;14.178;2022-11-15T07:53:09;4.20;99.90
7646;DHT22;3864;48.180;14.178;2022-11-15T07:55:39;4.30;99.90
7646;DHT22;3864;48.180;14.178;2022-11-15T07:58:08;4.40;99.90
7646;DHT22;3864;48.180;14.178;2022-11-15T08:00:36;4.50;99.90
7646;DHT22;3864;48.180;14.178;2022-11-15T08:03:07;4.60;99.90
7646;DHT22;3864;48.180;14.178;2022-11-15T08:05:35;4.60;99.90
7646;DHT22;3864;48.180;14.178;2022-11-15T08:08:04;4.70;99.90
7646;DHT22;3864;48.180;14.178;2022-11-15T08:10:32;4.80;99.90
7646;DHT22;3864;48.180;14.178;2022-11-15T08:13:00;4.80;99.90
7646;DHT22;3864;48.180;14.178;2022-11-15T08:15:28;4.90;99.90
7646;DHT22;3864;48.180;14.178;2022-11-15T08:17:56;5.00;99.90
7646;DHT22;3864;48.180;14.178;2022-11-15T08:20:27;4.90;99.90
7646;DHT22;3864;48.180;14.178;2022-11-15T08:22:57;5.00;99.90
7646;DHT22;3864;48.180;14.178;2022-11-15T08:25:25;5.00;99.90
7646;DHT22;3864;48.180;14.178;2022-11-15T08:27:53;5.00;99.90
7646;DHT22;3864;48.180;14.178;2022-11-15T08:30:21;5.10;99.90
7646;DHT22;3864;48.180;14.178;2022-11-15T08:32:49;5.10;99.90
7646;DHT22;3864;48.180;14.178;2022-11-15T08:35:16;5.20;99.90
7646;DHT22;3864;48.180;14.178;2022-11-15T08:37:46;5.20;99.90
7646;DHT22;3864;48.180;14.178;2022-11-15T08:40:13;5.30;99.90
7646;DHT22;3864;48.180;14.178;2022-11-15T08:42:41;5.30;99.90
7646;DHT22;3864;48.180;14.178;2022-11-15T08:45:09;5.30;99.90
7646;DHT22;3864;48.180;14.178;2022-11-15T08:47:36;5.40;99.90
7646;DHT22;3864;48.180;14.178;2022-11-15T08:50:04;5.40;99.90
7646;DHT22;3864;48.180;14.178;2022-11-15T08:52:32;5.30;99.90
7646;DHT22;3864;48.180;14.178;2022-11-15T08:55:01;5.40;99.90
7646;DHT22;3864;48.180;14.178;2022-11-15T08:57:29;5.50;99.90
7646;DHT22;3864;48.180;14.178;2022-11-15T08:59:56;5.60;99.90
7646;DHT22;3864;48.180;14.178;2022-11-15T09:02:24;5.70;99.90
7646;DHT22;3864;48.180;14.178;2022-11-15T09:04:51;5.70;99.90
7646;DHT22;3864;48.180;14.178;2022-11-15T09:07:19;5.80;99.90
7646;DHT22;3864;48.180;14.178;2022-11-15T09:09:46;5.70;99.90
7646;DHT22;3864;48.180;14.178;2022-11-15T09:12:15;5.80;99.90
7646;DHT22;3864;48.180;14.178;2022-11-15T09:14:42;5.90;99.90
7646;DHT22;3864;48.180;14.178;2022-11-15T09:17:10;6.10;99.90
7646;DHT22;3864;48.180;14.178;2022-11-15T09:19:37;6.20;99.90
7646;DHT22;3864;48.180;14.178;2022-11-15T09:22:06;6.30;99.90
7646;DHT22;3864;48.180;14.178;2022-11-15T09:24:33;6.20;99.90
7646;DHT22;3864;48.180;14.178;2022-11-15T09:27:01;6.10;99.90
7646;DHT22;3864;48.180;14.178;2022-11-15T09:29:30;6.00;99.90
7646;DHT22;3864;48.180;14.178;2022-11-15T09:31:59;6.00;99.90
7646;DHT22;3864;48.180;14.178;2022-11-15T09:34:26;6.00;99.90
7646;DHT22;3864;48.180;14.178;2022-11-15T09:36:53;6.00;99.90
7646;DHT22;3864;48.180;14.178;2022-11-15T09:39:20;6.00;99.90
7646;DHT22;3864;48.180;14.178;2022-11-15T09:42:06;6.00;99.90
7646;DHT22;3864;48.180;14.178;2022-11-15T09:44:45;5.90;99.90
7646;DHT22;3864;48.180;14.178;2022-11-15T09:47:42;5.90;99.90
7646;DHT22;3864;48.180;14.178;2022-11-15T09:50:15;6.10;99.90
7646;DHT22;3864;48.180;14.178;2022-11-15T09:52:45;6.00;99.90
7646;DHT22;3864;48.180;14.178;2022-11-15T09:55:14;6.00;99.90
7646;DHT22;3864;48.180;14.178;2022-11-15T09:57:51;5.90;99.90
7646;DHT22;3864;48.180;14.178;2022-11-15T10:00:25;6.00;99.90
7646;DHT22;3864;48.180;14.178;2022-11-15T10:03:08;6.10;99.90
7646;DHT22;3864;48.180;14.178;2022-11-15T10:05:40;6.10;99.90
7646;DHT22;3864;48.180;14.178;2022-11-15T10:08:20;6.10;99.90
7646;DHT22;3864;48.180;14.178;2022-11-15T10:10:53;6.10;99.90
7646;DHT22;3864;48.180;14.178;2022-11-15T10:13:24;6.00;99.90
7646;DHT22;3864;48.180;14.178;2022-11-15T10:16:02;6.00;99.90
7646;DHT22;3864;48.180;14.178;2022-11-15T10:18:35;6.10;99.90
7646;DHT22;3864;48.180;14.178;2022-11-15T10:21:15;6.10;99.90
7646;DHT22;3864;48.180;14.178;2022-11-15T10:23:43;6.20;99.90
7646;DHT22;3864;48.180;14.178;2022-11-15T10:26:16;6.20;99.90
7646;DHT22;3864;48.180;14.178;2022-11-15T10:28:44;6.20;99.90
7646;DHT22;3864;48.180;14.178;2022-11-15T10:31:24;6.30;99.90
7646;DHT22;3864;48.180;14.178;2022-11-15T10:33:59;6.40;99.90
7646;DHT22;3864;48.180;14.178;2022-11-15T10:36:32;6.30;99.90
7646;DHT22;3864;48.180;14.178;2022-11-15T10:38:59;6.30;99.90
7646;DHT22;3864;48.180;14.178;2022-11-15T10:41:40;6.40;99.90
7646;DHT22;3864;48.180;14.178;2022-11-15T10:44:20;6.50;99.90
7646;DHT22;3864;48.180;14.178;2022-11-15T10:47:04;6.50;99.90
7646;DHT22;3864;48.180;14.178;2022-11-15T10:49:33;6.50;99.90
7646;DHT22;3864;48.180;14.178;2022-11-15T10:52:04;6.40;99.90
7646;DHT22;3864;48.180;14.178;2022-11-15T10:54:41;6.40;99.90
7646;DHT22;3864;48.180;14.178;2022-11-15T10:57:13;6.50;99.90
7646;DHT22;3864;48.180;14.178;2022-11-15T10:59:46;6.60;99.90
7646;DHT22;3864;48.180;14.178;2022-11-15T11:02:35;6.50;99.90
7646;DHT22;3864;48.180;14.178;2022-11-15T11:05:05;6.40;99.90
7646;DHT22;3864;48.180;14.178;2022-11-15T11:07:34;6.30;99.90
7646;DHT22;3864;48.180;14.178;2022-11-15T11:10:05;6.30;99.90
7646;DHT22;3864;48.180;14.178;2022-11-15T11:12:43;6.40;99.90
7646;DHT22;3864;48.180;14.178;2022-11-15T11:15:13;6.50;99.90
7646;DHT22;3864;48.180;14.178;2022-11-15T11:17:53;6.70;99.90
7646;DHT22;3864;48.180;14.178;2022-11-15T11:20:26;6.80;99.90
7646;DHT22;3864;48.180;14.178;2022-11-15T11:23:16;6.80;99.90
7646;DHT22;3864;48.180;14.178;2022-11-15T11:25:52;6.70;99.90
7646;DHT22;3864;48.180;14.178;2022-11-15T11:28:31;6.70;99.90
7646;DHT22;3864;48.180;14.178;2022-11-15T11:31:15;6.70;99.90
7646;DHT22;3864;48.180;14.178;2022-11-15T11:33:50;6.50;99.90
7646;DHT22;3864;48.180;14.178;2022-11-15T11:36:26;6.40;99.90
7646;DHT22;3864;48.180;14.178;2022-11-15T11:39:00;6.40;99.90
7646;DHT22;3864;48.180;14.178;2022-11-15T11:41:47;6.40;99.90
7646;DHT22;3864;48.180;14.178;2022-11-15T11:44:41;6.60;99.90
7646;DHT22;3864;48.180;14.178;2022-11-15T11:47:12;6.70;99.90
7646;DHT22;3864;48.180;14.178;2022-11-15T11:49:47;6.60;99.90
7646;DHT22;3864;48.180;14.178;2022-11-15T11:52:22;6.70;99.90
7646;DHT22;3864;48.180;14.178;2022-11-15T11:54:59;6.70;99.90
7646;DHT22;3864;48.180;14.178;2022-11-15T11:57:37;6.70;99.90
7646;DHT22;3864;48.180;14.178;2022-11-15T12:00:17;6.70;99.90
7646;DHT22;3864;48.180;14.178;2022-11-15T12:02:50;6.70;99.90
7646;DHT22;3864;48.180;14.178;2022-11-15T12:05:28;6.80;99.90
7646;DHT22;3864;48.180;14.178;2022-11-15T12:08:03;6.90;99.90
7646;DHT22;3864;48.180;14.178;2022-11-15T12:10:33;6.90;99.90
7646;DHT22;3864;48.180;14.178;2022-11-15T12:13:06;6.90;99.90
7646;DHT22;3864;48.180;14.178;2022-11-15T12:15:40;6.80;99.90
7646;DHT22;3864;48.180;14.178;2022-11-15T12:18:12;6.80;99.90
7646;DHT22;3864;48.180;14.178;2022-11-15T12:20:50;6.90;99.90
7646;DHT22;3864;48.180;14.178;2022-11-15T12:23:22;6.80;99.90
7646;DHT22;3864;48.180;14.178;2022-11-15T12:25:53;6.80;99.90
7646;DHT22;3864;48.180;14.178;2022-11-15T12:28:30;6.70;99.90
7646;DHT22;3864;48.180;14.178;2022-11-15T12:31:04;6.70;99.90
7646;DHT22;3864;48.180;14.178;2022-11-15T12:33:38;6.70;99.90
7646;DHT22;3864;48.180;14.178;2022-11-15T12:36:11;6.70;99.90
7646;DHT22;3864;48.180;14.178;2022-11-15T12:38:56;6.60;99.90
7646;DHT22;3864;48.180;14.178;2022-11-15T12:41:27;6.60;99.90
7646;DHT22;3864;48.180;14.178;2022-11-15T12:43:55;6.60;99.90
7646;DHT22;3864;48.180;14.178;2022-11-15T12:47:03;6.70;99.90
7646;DHT22;3864;48.180;14.178;2022-11-15T12:49:46;6.80;99.90
7646;DHT22;3864;48.180;14.178;2022-11-15T12:52:16;6.90;99.90
7646;DHT22;3864;48.180;14.178;2022-11-15T12:55:01;6.90;99.90
7646;DHT22;3864;48.180;14.178;2022-11-15T12:57:41;6.90;99.90
7646;DHT22;3864;48.180;14.178;2022-11-15T13:00:43;6.90;99.90
7646;DHT22;3864;48.180;14.178;2022-11-15T13:03:22;7.00;99.90
7646;DHT22;3864;48.180;14.178;2022-11-15T13:05:58;7.10;99.90
7646;DHT22;3864;48.180;14.178;2022-11-15T13:08:48;7.10;99.90
7646;DHT22;3864;48.180;14.178;2022-11-15T13:11:41;7.10;99.90
7646;DHT22;3864;48.180;14.178;2022-11-15T13:14:43;7.10;99.90
7646;DHT22;3864;48.180;14.178;2022-11-15T13:17:24;7.20;99.90
7646;DHT22;3864;48.180;14.178;2022-11-15T13:19:58;7.20;99.90
7646;DHT22;3864;48.180;14.178;2022-11-15T13:22:26;7.20;99.90
7646;DHT22;3864;48.180;14.178;2022-11-15T13:25:43;7.10;99.90
7646;DHT22;3864;48.180;14.178;2022-11-15T13:28:21;7.00;99.90
7646;DHT22;3864;48.180;14.178;2022-11-15T13:30:52;7.00;99.90
7646;DHT22;3864;48.180;14.178;2022-11-15T13:33:22;7.00;99.90
7646;DHT22;3864;48.180;14.178;2022-11-15T13:35:51;7.00;99.90
7646;DHT22;3864;48.180;14.178;2022-11-15T13:38:26;6.90;99.90
7646;DHT22;3864;48.180;14.178;2022-11-15T13:40:56;6.80;99.90
7646;DHT22;3864;48.180;14.178;2022-11-15T13:43:31;6.80;99.90
7646;DHT22;3864;48.180;14.178;2022-11-15T13:46:11;6.80;99.90
7646;DHT22;3864;48.180;14.178;2022-11-15T13:48:40;6.80;99.90
7646;DHT22;3864;48.180;14.178;2022-11-15T13:51:15;6.80;99.90
7646;DHT22;3864;48.180;14.178;2022-11-15T13:53:47;6.80;99.90
7646;DHT22;3864;48.180;14.178;2022-11-15T13:56:19;6.80;99.90
7646;DHT22;3864;48.180;14.178;2022-11-15T13:58:48;6.80;99.90
7646;DHT22;3864;48.180;14.178;2022-11-15T14:01:17;6.80;99.90
7646;DHT22;3864;48.180;14.178;2022-11-15T14:03:56;6.80;99.90
7646;DHT22;3864;48.180;14.178;2022-11-15T14:06:25;6.80;99.90
7646;DHT22;3864;48.180;14.178;2022-11-15T14:09:15;6.80;99.90
7646;DHT22;3864;48.180;14.178;2022-11-15T14:11:54;6.70;99.90
7646;DHT22;3864;48.180;14.178;2022-11-15T14:14:23;6.70;99.90
7646;DHT22;3864;48.180;14.178;2022-11-15T14:16:52;6.70;99.90
7646;DHT22;3864;48.180;14.178;2022-11-15T14:19:38;6.70;99.90
7646;DHT22;3864;48.180;14.178;2022-11-15T14:22:17;6.70;99.90
7646;DHT22;3864;48.180;14.178;2022-11-15T14:24:50;6.70;99.90
7646;DHT22;3864;48.180;14.178;2022-11-15T14:27:33;6.70;99.90
7646;DHT22;3864;48.180;14.178;2022-11-15T14:30:01;6.60;99.90
7646;DHT22;3864;48.180;14.178;2022-11-15T14:32:30;6.50;99.90
7646;DHT22;3864;48.180;14.178;2022-11-15T14:35:16;6.50;99.90
7646;DHT22;3864;48.180;14.178;2022-11-15T14:37:44;6.50;99.90
7646;DHT22;3864;48.180;14.178;2022-11-15T14:40:13;6.50;99.90
7646;DHT22;3864;48.180;14.178;2022-11-15T14:42:44;6.40;99.90
7646;DHT22;3864;48.180;14.178;2022-11-15T14:45:13;6.40;99.90
7646;DHT22;3864;48.180;14.178;2022-11-15T14:47:41;6.40;99.90
7646;DHT22;3864;48.180;14.178;2022-11-15T14:50:12;6.30;99.90
7646;DHT22;3864;48.180;14.178;2022-11-15T14:52:39;6.30;99.90
7646;DHT22;3864;48.180;14.178;2022-11-15T14:55:16;6.30;99.90
7646;DHT22;3864;48.180;14.178;2022-11-15T14:57:48;6.20;99.90
7646;DHT22;3864;48.180;14.178;2022-11-15T15:00:16;6.20;99.90
7646;DHT22;3864;48.180;14.178;2022-11-15T15:02:45;6.30;99.90
7646;DHT22;3864;48.180;14.178;2022-11-15T15:05:15;6.30;99.90
7646;DHT22;3864;48.180;14.178;2022-11-15T15:07:42;6.20;99.90
7646;DHT22;3864;48.180;14.178;2022-11-15T15:10:09;6.20;99.90
7646;DHT22;3864;48.180;14.178;2022-11-15T15:12:37;6.20;99.90
7646;DHT22;3864;48.180;14.178;2022-11-15T15:15:13;6.10;99.90
7646;DHT22;3864;48.180;14.178;2022-11-15T15:17:41;6.10;99.90
7646;DHT22;3864;48.180;14.178;2022-11-15T15:20:09;6.10;99.90
7646;DHT22;3864;48.180;14.178;2022-11-15T15:22:37;6.00;99.90
7646;DHT22;3864;48.180;14.178;2022-11-15T15:25:20;6.00;99.90
7646;DHT22;3864;48.180;14.178;2022-11-15T15:27:48;6.00;99.90
7646;DHT22;3864;48.180;14.178;2022-11-15T15:30:17;6.00;99.90
7646;DHT22;3864;48.180;14.178;2022-11-15T15:32:45;6.00;99.90
7646;DHT22;3864;48.180;14.178;2022-11-15T15:35:13;5.90;99.90
7646;DHT22;3864;48.180;14.178;2022-11-15T15:37:41;6.00;99.90
7646;DHT22;3864;48.180;14.178;2022-11-15T15:40:13;6.00;99.90
7646;DHT22;3864;48.180;14.178;2022-11-15T15:42:41;6.00;99.90
7646;DHT22;3864;48.180;14.178;2022-11-15T15:45:09;6.00;99.90
7646;DHT22;3864;48.180;14.178;2022-11-15T15:47:40;5.90;99.90
7646;DHT22;3864;48.180;14.178;2022-11-15T15:50:20;6.00;99.90
7646;DHT22;3864;48.180;14.178;2022-11-15T15:52:48;6.00;99.90
7646;DHT22;3864;48.180;14.178;2022-11-15T15:55:16;6.00;99.90
7646;DHT22;3864;48.180;14.178;2022-11-15T15:57:43;5.90;99.90
7646;DHT22;3864;48.180;14.178;2022-11-15T16:00:12;6.00;99.90
7646;DHT22;3864;48.180;14.178;2022-11-15T16:02:41;6.00;99.90
7646;DHT22;3864;48.180;14.178;2022-11-15T16:05:09;6.00;99.90
7646;DHT22;3864;48.180;14.178;2022-11-15T16:07:37;6.00;99.90
7646;DHT22;3864;48.180;14.178;2022-11-15T16:10:17;6.00;99.90
7646;DHT22;3864;48.180;14.178;2022-11-15T16:12:45;6.00;99.90
7646;DHT22;3864;48.180;14.178;2022-11-15T16:15:12;5.90;99.90
7646;DHT22;3864;48.180;14.178;2022-11-15T16:17:45;6.00;99.90
7646;DHT22;3864;48.180;14.178;2022-11-15T16:20:23;6.00;99.90
7646;DHT22;3864;48.180;14.178;2022-11-15T16:22:50;6.00;99.90
7646;DHT22;3864;48.180;14.178;2022-11-15T16:25:18;5.90;99.90
7646;DHT22;3864;48.180;14.178;2022-11-15T16:27:45;6.00;99.90
7646;DHT22;3864;48.180;14.178;2022-11-15T16:30:14;5.90;99.90
7646;DHT22;3864;48.180;14.178;2022-11-15T16:32:45;6.00;99.90
7646;DHT22;3864;48.180;14.178;2022-11-15T16:35:12;6.00;99.90
7646;DHT22;3864;48.180;14.178;2022-11-15T16:37:40;5.90;99.90